Flight Track Log - Related Links

Times and Time Zones

All times are in EST time to prevent confusion due to time zone crossing. See the EJA922 flight status page for this flight to view local times or setup timezone preferences in your user account.

Time Position Orientation Groundspeed Altitude Reporting Facility
EST Latitude Longitude Course Direction KTS MPH feet Rate Location/Type
Thu 05:49:48 PM 37.5564 -77.2919 46° Northeast 219 252 2,700  Level Washington Center
Thu 05:50:49 PM 37.6011 -77.2328 46° Northeast 266 306 6,300 3,344 Climbing Washington Center
Thu 05:51:50 PM 37.6583 -77.1631 44° Northeast 285 328 9,500 2,529 Climbing Washington Center
Thu 05:52:50 PM 37.7303 -77.0858 40° Northeast 308 354 11,400 1,750 Climbing Washington Center
Thu 05:53:50 PM 37.8189 -76.9983 38° Northeast 356 410 13,000 763 Climbing Washington Center
Thu 05:54:48 PM 37.9136 -76.9000 39° Northeast 406 467 12,900  Descending Washington Center
Thu 05:55:00 PM 38.0474 -76.7147 46° Northeast  Level FlightAware Approximate
Thu 05:55:48 PM 37.9983 -76.7908 45° Northeast 423 487 13,000  Level Washington Center
Thu 05:56:49 PM 38.0828 -76.6839 45° Northeast 428 493 15,500 1,967 Climbing Washington Center
Thu 05:57:50 PM 38.1672 -76.5664 48° Northeast 435 501 17,000 807 Climbing Washington Center
Thu 05:58:48 PM 38.2597 -76.4406 47° Northeast 454 522 17,100 50 Climbing Washington Center
Thu 05:59:49 PM 38.3644 -76.3861 22° Northeast 448 516 17,100 -49 Level Washington Center
Thu 06:00:50 PM 38.4794 -76.3636 North 417 480 17,000 -50 Descending Washington Center
Thu 06:01:50 PM 38.5942 -76.3408 North 417 480 17,000  Level Washington Center
Thu 06:02:51 PM 38.7069 -76.3206 North 411 473 17,000 -403 Level Washington Center
Thu 06:03:49 PM 38.8236 -76.3006 North 411 473 16,200 -1,008 Descending Washington Center
Thu 06:04:50 PM 38.9364 -76.2803 North 411 473 15,000 -605 Descending Washington Center
Thu 06:05:48 PM 39.0492 -76.2597 North 411 473 15,000  Level Washington Center
Thu 06:06:49 PM 39.1578 -76.2206 16° North 411 473 15,000 -49 Level Washington Center
Thu 06:07:50 PM 39.2686 -76.1008 40° Northeast 425 489 14,900 -50 Descending Washington Center
Thu 06:08:49 PM 39.3692 -76.0022 37° Northeast 445 512 14,900  Level Washington Center
Thu 06:09:50 PM 39.4714 -75.9033 37° Northeast 451 519 14,900 -151 Level Washington Center
Thu 06:12:08 PM 39.7167 -75.6667 37° Northeast 453 521 14,400 -576 Descending Philadelphia TRACON
Thu 06:13:08 PM 39.8167 -75.5833 33° Northeast 436 502 13,000 -700 Descending Philadelphia TRACON
Thu 06:14:08 PM 39.9167 -75.4833 37° Northeast 440 506 13,000  Level Philadelphia TRACON
Thu 06:15:20 PM 40.0333 -75.3833 33° Northeast 438 504 13,000  Level Philadelphia TRACON
Thu 06:16:14 PM 40.1167 -75.3000 37° Northeast 435 501 13,000 -820 Level Philadelphia TRACON
Thu 06:18:01 PM 40.2667 -75.1667 34° Northeast 332 382 10,800 -1,473 Descending New York TRACON
Thu 06:19:01 PM 40.3333 -75.1000 37° Northeast 296 341 8,900 -1,750 Descending New York TRACON
Thu 06:20:01 PM 40.3833 -75.0167 52° Northeast 290 334 7,300 -1,600 Descending New York TRACON
Thu 06:21:01 PM 40.4333 -74.9500 45° Northeast 281 323 5,700 -1,526 Descending New York TRACON
Thu 06:21:55 PM 40.4833 -74.8833 45° Northeast 271 312 4,400 -850 Descending New York TRACON
Thu 06:23:01 PM 40.5500 -74.8167 37° Northeast 256 295 4,000 -190 Descending New York TRACON
Thu 06:24:01 PM 40.6000 -74.7667 37° Northeast 255 293 4,000  Level New York TRACON
Thu 06:24:55 PM 40.6500 -74.7167 37° Northeast 267 307 4,000 -150 Level New York TRACON
Thu 06:26:01 PM 40.7167 -74.6500 37° Northeast 265 305 3,700 -476 Descending New York TRACON
Thu 06:27:01 PM 40.7667 -74.5833 45° Northeast 253 291 3,000 -350 Descending New York TRACON
Thu 06:28:01 PM 40.8167 -74.5167 45° Northeast 261 300 3,000  Level New York TRACON
Thu 06:29:01 PM 40.8667 -74.4333 52° Northeast 273 314 3,000  Level New York TRACON
Thu 06:30:01 PM 40.8833 -74.3500 75° East 250 288 3,000  Level New York TRACON
Thu 06:31:01 PM 40.9000 -74.2667 75° East 223 257 3,000 -300 Level New York TRACON
Thu 06:32:01 PM 40.9167 -74.1833 75° East 235 270 2,400 -500 Descending New York TRACON
Thu 06:33:01 PM 40.9500 -74.1167 56° Northeast 207 238 2,000 -200 Descending New York TRACON
Thu 06:34:01 PM 40.9667 -74.0667 66° East 184 212 2,000 -100 Level New York TRACON
Thu 06:35:01 PM 40.9333 -74.0500 159° South 160 184 1,800 -450 Descending New York TRACON
Thu 06:36:01 PM 40.9000 -74.0333 159° South 151 174 1,100 -700 Descending New York TRACON
Thu 06:37:01 PM 40.8667 -74.0333 180° South 122 140 400 -700 Descending New York TRACON

Login

Don't have an account? Register now (free) for customized features, flight alerts, and more!